createdAt,value
2023-03-28T00:00:30.238Z,972.58
2023-03-28T00:01:31.376Z,972.58
2023-03-28T00:02:30.199Z,972.55
2023-03-28T00:03:30.172Z,972.64
2023-03-28T00:04:30.049Z,972.67
2023-03-28T00:05:31.457Z,972.63
2023-03-28T00:06:29.968Z,972.65
2023-03-28T00:07:29.987Z,972.66
2023-03-28T00:08:29.867Z,972.72
2023-03-28T00:09:29.997Z,972.68
2023-03-28T00:10:29.767Z,972.68
2023-03-28T00:11:29.803Z,972.69
2023-03-28T00:12:30.889Z,972.69
2023-03-28T00:13:29.832Z,972.69
2023-03-28T00:14:29.576Z,972.72
2023-03-28T00:15:29.636Z,972.72
2023-03-28T00:16:29.491Z,972.71
2023-03-28T00:17:29.657Z,972.68
2023-03-28T00:18:29.382Z,972.68
2023-03-28T00:19:30.482Z,972.68
2023-03-28T00:20:29.296Z,972.67
2023-03-28T00:21:29.482Z,972.67
2023-03-28T00:22:29.194Z,972.65
2023-03-28T00:23:29.284Z,972.66
2023-03-28T00:24:29.104Z,972.68
2023-03-28T00:25:30.418Z,972.65
2023-03-28T00:26:29.003Z,972.66
2023-03-28T00:27:29.212Z,972.65
2023-03-28T00:28:28.987Z,972.64
2023-03-28T00:29:29.025Z,972.68
2023-03-28T00:30:28.813Z,972.68
2023-03-28T00:31:28.908Z,972.66
2023-03-28T00:32:28.914Z,972.67
2023-03-28T00:33:28.852Z,972.65
2023-03-28T00:34:28.623Z,972.64
2023-03-28T00:35:28.662Z,972.64
2023-03-28T00:36:28.527Z,972.65
2023-03-28T00:37:29.712Z,972.61
2023-03-28T00:38:28.607Z,972.63
2023-03-28T00:39:28.485Z,972.62
2023-03-28T00:40:28.486Z,972.64
2023-03-28T00:41:28.286Z,972.61
2023-03-28T00:42:28.291Z,972.65
2023-03-28T00:43:28.195Z,972.63
2023-03-28T00:44:28.313Z,972.62
2023-03-28T00:45:28.096Z,972.59
2023-03-28T00:46:28.063Z,972.66
2023-03-28T00:47:28.308Z,972.64
2023-03-28T00:48:27.956Z,972.61
2023-03-28T00:49:28.141Z,972.63
2023-03-28T00:50:27.898Z,972.61
2023-03-28T00:51:27.972Z,972.58
2023-03-28T00:52:27.757Z,972.59
2023-03-28T00:53:27.966Z,972.56
2023-03-28T00:54:27.668Z,972.53
2023-03-28T00:55:27.775Z,972.57
2023-03-28T00:56:27.613Z,972.57
2023-03-28T00:57:27.590Z,972.60
2023-03-28T00:58:27.473Z,972.59
2023-03-28T00:59:27.705Z,972.60
2023-03-28T01:00:27.382Z,972.59
2023-03-28T01:01:27.559Z,972.57
2023-03-28T01:02:27.389Z,972.57
2023-03-28T01:03:27.423Z,972.58
2023-03-28T01:04:27.221Z,972.57
2023-03-28T01:05:27.236Z,972.58
2023-03-28T01:06:27.084Z,972.59
2023-03-28T01:07:27.249Z,972.60
2023-03-28T01:08:26.990Z,972.62
2023-03-28T01:09:27.058Z,972.62
2023-03-28T01:10:26.926Z,972.63
2023-03-28T01:11:26.844Z,972.62
2023-03-28T01:12:26.870Z,972.66
2023-03-28T01:13:26.937Z,972.66
2023-03-28T01:14:26.890Z,972.67
2023-03-28T01:15:26.740Z,972.66
2023-03-28T01:16:26.736Z,972.64
2023-03-28T01:17:26.576Z,972.69
2023-03-28T01:18:26.710Z,972.72
2023-03-28T01:19:26.497Z,972.68
2023-03-28T01:20:26.662Z,972.65
2023-03-28T01:21:26.479Z,972.63
2023-03-28T01:22:26.447Z,972.64
2023-03-28T01:23:26.436Z,972.67
2023-03-28T01:24:26.506Z,972.66
2023-03-28T01:25:26.248Z,972.66
2023-03-28T01:26:26.878Z,972.60
2023-03-28T01:27:26.079Z,972.62
2023-03-28T01:28:26.179Z,972.62
2023-03-28T01:29:25.974Z,972.68
2023-03-28T01:30:26.186Z,972.65
2023-03-28T01:31:25.996Z,972.68
2023-03-28T01:32:26.022Z,972.67
2023-03-28T01:33:25.784Z,972.72
2023-03-28T01:34:25.803Z,972.71
2023-03-28T01:35:26.891Z,972.73
2023-03-28T01:36:34.146Z,972.70
2023-03-28T01:37:25.802Z,972.69
2023-03-28T01:38:27.786Z,972.70
2023-03-28T01:39:25.506Z,972.70
2023-03-28T01:40:26.565Z,972.71
2023-03-28T01:41:25.560Z,972.73
2023-03-28T01:42:25.364Z,972.73
2023-03-28T01:43:26.581Z,972.72
2023-03-28T01:44:25.254Z,972.71
2023-03-28T01:45:25.292Z,972.68
2023-03-28T01:46:25.286Z,972.65
2023-03-28T01:47:25.137Z,972.68
2023-03-28T01:48:25.060Z,972.66
2023-03-28T01:49:25.319Z,972.67
2023-03-28T01:50:24.961Z,972.68
2023-03-28T01:51:25.124Z,972.69
2023-03-28T01:52:24.870Z,972.66
2023-03-28T01:53:24.926Z,972.66
2023-03-28T01:54:24.779Z,972.70
2023-03-28T01:55:25.031Z,972.70
2023-03-28T01:56:24.696Z,972.65
2023-03-28T01:57:25.969Z,972.64
2023-03-28T01:58:24.577Z,972.65
2023-03-28T01:59:24.650Z,972.60
2023-03-28T02:00:24.502Z,972.60
2023-03-28T02:01:24.937Z,972.62
2023-03-28T02:02:24.469Z,972.58
2023-03-28T02:03:24.611Z,972.62
2023-03-28T02:04:24.287Z,972.64
2023-03-28T02:05:24.392Z,972.62
2023-03-28T02:06:24.199Z,972.63
2023-03-28T02:07:24.421Z,972.60
2023-03-28T02:08:24.097Z,972.59
2023-03-28T02:09:24.820Z,972.59
2023-03-28T02:10:24.018Z,972.61
2023-03-28T02:11:24.051Z,972.61
2023-03-28T02:12:23.910Z,972.61
2023-03-28T02:13:24.043Z,972.61
2023-03-28T02:14:23.824Z,972.61
2023-03-28T02:15:23.850Z,972.62
2023-03-28T02:16:23.923Z,972.62
2023-03-28T02:17:23.912Z,972.62
2023-03-28T02:18:24.691Z,972.61
2023-03-28T02:19:23.569Z,972.63
2023-03-28T02:20:23.686Z,972.60
2023-03-28T02:21:23.484Z,972.58
2023-03-28T02:22:23.703Z,972.59
2023-03-28T02:23:23.377Z,972.58
2023-03-28T02:24:23.333Z,972.60
2023-03-28T02:25:24.544Z,972.58
2023-03-28T02:26:23.244Z,972.53
2023-03-28T02:27:23.437Z,972.58
2023-03-28T02:28:23.252Z,972.50
2023-03-28T02:29:23.245Z,972.48
2023-03-28T02:30:23.254Z,972.45
2023-03-28T02:31:23.013Z,972.43
2023-03-28T02:32:23.091Z,972.39
2023-03-28T02:33:23.125Z,972.38
2023-03-28T02:34:23.082Z,972.41
2023-03-28T02:35:22.830Z,972.38
2023-03-28T02:36:22.757Z,972.39
2023-03-28T02:37:22.728Z,972.35
2023-03-28T02:38:22.902Z,972.34
2023-03-28T02:39:22.610Z,972.38
2023-03-28T02:40:22.723Z,972.39
2023-03-28T02:41:22.506Z,972.39
2023-03-28T02:42:22.469Z,972.40
2023-03-28T02:43:22.581Z,972.44
2023-03-28T02:44:22.535Z,972.35
2023-03-28T02:45:22.316Z,972.41
2023-03-28T02:46:22.582Z,972.33
2023-03-28T02:47:22.234Z,972.32
2023-03-28T02:48:23.384Z,972.32
2023-03-28T02:49:22.148Z,972.28
2023-03-28T02:50:22.283Z,972.25
2023-03-28T02:51:22.038Z,972.24
2023-03-28T02:52:22.085Z,972.24
2023-03-28T02:53:21.932Z,972.26
2023-03-28T02:54:22.100Z,972.19
2023-03-28T02:55:21.948Z,972.17
2023-03-28T02:56:22.025Z,972.14
2023-03-28T02:57:21.748Z,972.15
2023-03-28T02:58:21.824Z,972.10
2023-03-28T02:59:21.658Z,972.15
2023-03-28T03:00:21.877Z,972.14
2023-03-28T03:01:21.601Z,972.10
2023-03-28T03:02:21.810Z,972.08
2023-03-28T03:03:21.477Z,972.08
2023-03-28T03:04:21.664Z,972.09
2023-03-28T03:05:21.519Z,972.08
2023-03-28T03:06:21.514Z,972.10
2023-03-28T03:07:21.262Z,972.07
2023-03-28T03:08:21.491Z,972.05
2023-03-28T03:09:21.164Z,972.07
2023-03-28T03:10:21.296Z,972.06
2023-03-28T03:11:21.081Z,972.05
2023-03-28T03:12:22.130Z,972.04
2023-03-28T03:13:21.131Z,972.02
2023-03-28T03:14:20.927Z,972.02
2023-03-28T03:15:21.129Z,972.04
2023-03-28T03:16:20.852Z,972.04
2023-03-28T03:17:20.938Z,972.02
2023-03-28T03:18:20.727Z,972.05
2023-03-28T03:19:20.686Z,972.08
2023-03-28T03:20:20.860Z,972.03
2023-03-28T03:21:20.580Z,972.01
2023-03-28T03:22:21.345Z,972.07
2023-03-28T03:23:20.481Z,972.06
2023-03-28T03:24:20.703Z,972.08
2023-03-28T03:25:20.484Z,972.07
2023-03-28T03:26:20.364Z,972.05
2023-03-28T03:27:20.709Z,972.07
2023-03-28T03:28:20.240Z,972.08
2023-03-28T03:29:20.313Z,971.97
2023-03-28T03:30:20.162Z,972.04
2023-03-28T03:31:20.236Z,972.05
2023-03-28T03:32:20.229Z,972.01
2023-03-28T03:33:20.049Z,972.04
2023-03-28T03:34:20.086Z,972.02
2023-03-28T03:35:19.941Z,972.00
2023-03-28T03:36:20.051Z,971.99
2023-03-28T03:37:19.803Z,971.99
2023-03-28T03:38:23.342Z,971.97
2023-03-28T03:39:19.706Z,971.96
2023-03-28T03:40:19.772Z,971.99
2023-03-28T03:41:19.607Z,971.96
2023-03-28T03:42:19.789Z,971.92
2023-03-28T03:43:19.516Z,971.92
2023-03-28T03:44:19.480Z,971.90
2023-03-28T03:45:19.508Z,971.86
2023-03-28T03:46:19.403Z,971.85
2023-03-28T03:47:19.417Z,971.83
2023-03-28T03:48:19.268Z,971.81
2023-03-28T03:49:19.430Z,971.84
2023-03-28T03:50:19.206Z,971.77
2023-03-28T03:51:19.244Z,971.80
2023-03-28T03:52:19.074Z,971.80
2023-03-28T03:53:19.268Z,971.81
2023-03-28T03:54:18.976Z,971.80
2023-03-28T03:55:19.065Z,971.78
2023-03-28T03:56:19.119Z,971.84
2023-03-28T03:57:19.118Z,971.82
2023-03-28T03:58:18.798Z,971.85
2023-03-28T03:59:18.910Z,971.87
2023-03-28T04:00:18.689Z,971.85
2023-03-28T04:01:18.902Z,971.87
2023-03-28T04:02:18.616Z,971.83
2023-03-28T04:03:25.243Z,971.83
2023-03-28T04:04:18.529Z,971.84
2023-03-28T04:05:18.730Z,971.87
2023-03-28T04:06:18.400Z,971.83
2023-03-28T04:07:19.558Z,971.87
2023-03-28T04:08:18.548Z,971.85
2023-03-28T04:09:18.238Z,971.85
2023-03-28T04:10:18.367Z,971.85
2023-03-28T04:11:18.241Z,971.89
2023-03-28T04:12:18.369Z,971.86
2023-03-28T04:13:18.047Z,971.87
2023-03-28T04:14:18.226Z,971.87
2023-03-28T04:15:18.189Z,971.89
2023-03-28T04:16:17.933Z,971.89
2023-03-28T04:17:17.995Z,971.89
2023-03-28T04:18:17.891Z,971.90
2023-03-28T04:19:18.054Z,971.88
2023-03-28T04:20:18.023Z,971.89
2023-03-28T04:21:17.871Z,971.92
2023-03-28T04:22:17.828Z,971.91
2023-03-28T04:23:17.558Z,971.94
2023-03-28T04:24:17.733Z,971.97
2023-03-28T04:25:17.511Z,971.99
2023-03-28T04:26:17.416Z,972.00
2023-03-28T04:27:17.365Z,972.02
2023-03-28T04:28:17.560Z,972.02
2023-03-28T04:29:17.263Z,972.04
2023-03-28T04:30:18.424Z,972.04
2023-03-28T04:31:17.206Z,972.01
2023-03-28T04:32:17.388Z,972.01
2023-03-28T04:33:17.074Z,972.06
2023-03-28T04:34:17.221Z,972.03
2023-03-28T04:35:17.011Z,972.08
2023-03-28T04:36:17.221Z,972.08
2023-03-28T04:37:16.883Z,972.12
2023-03-28T04:38:21.322Z,972.06
2023-03-28T04:39:16.774Z,972.07
2023-03-28T04:40:18.071Z,972.08
2023-03-28T04:41:16.718Z,972.06
2023-03-28T04:42:16.993Z,972.05
2023-03-28T04:43:16.590Z,972.08
2023-03-28T04:44:17.689Z,972.09
2023-03-28T04:45:18.022Z,972.13
2023-03-28T04:46:16.601Z,972.17
2023-03-28T04:47:16.634Z,972.17
2023-03-28T04:48:16.486Z,972.16
2023-03-28T04:49:16.332Z,972.19
2023-03-28T04:50:16.424Z,972.20
2023-03-28T04:51:16.192Z,972.23
2023-03-28T04:52:16.415Z,972.23
2023-03-28T04:53:16.113Z,972.26
2023-03-28T04:54:16.328Z,972.25
2023-03-28T04:55:16.516Z,972.24
2023-03-28T04:56:16.138Z,972.24
2023-03-28T04:57:15.951Z,972.25
2023-03-28T04:58:16.151Z,972.26
2023-03-28T04:59:15.801Z,972.25
2023-03-28T05:00:15.975Z,972.26
2023-03-28T05:01:15.847Z,972.29
2023-03-28T05:02:15.809Z,972.32
2023-03-28T05:03:15.672Z,972.28
2023-03-28T05:04:16.810Z,972.33
2023-03-28T05:05:15.509Z,972.28
2023-03-28T05:06:15.702Z,972.29
2023-03-28T05:07:15.433Z,972.28
2023-03-28T05:08:15.508Z,972.31
2023-03-28T05:09:15.509Z,972.33
2023-03-28T05:10:15.264Z,972.33
2023-03-28T05:11:15.324Z,972.39
2023-03-28T05:12:15.489Z,972.39
2023-03-28T05:13:15.238Z,972.41
2023-03-28T05:14:15.060Z,972.45
2023-03-28T05:15:22.848Z,972.44
2023-03-28T05:16:14.995Z,972.49
2023-03-28T05:17:16.086Z,972.49
2023-03-28T05:18:14.874Z,972.48
2023-03-28T05:19:15.071Z,972.54
2023-03-28T05:20:14.768Z,972.50
2023-03-28T05:21:15.043Z,972.46
2023-03-28T05:22:14.682Z,972.48
2023-03-28T05:23:14.801Z,972.55
2023-03-28T05:24:14.572Z,972.57
2023-03-28T05:25:14.812Z,972.59
2023-03-28T05:26:14.462Z,972.57
2023-03-28T05:27:14.830Z,972.60
2023-03-28T05:28:14.374Z,972.64
2023-03-28T05:29:15.549Z,972.57
2023-03-28T05:30:14.348Z,972.58
2023-03-28T05:31:14.340Z,972.57
2023-03-28T05:32:14.174Z,972.60
2023-03-28T05:33:15.620Z,972.63
2023-03-28T05:34:14.077Z,972.63
2023-03-28T05:35:14.171Z,972.66
2023-03-28T05:36:14.030Z,972.69
2023-03-28T05:37:14.182Z,972.67
2023-03-28T05:38:13.890Z,972.68
2023-03-28T05:39:15.033Z,972.71
2023-03-28T05:40:13.802Z,972.70
2023-03-28T05:41:14.020Z,972.68
2023-03-28T05:42:13.860Z,972.69
2023-03-28T05:43:13.917Z,972.74
2023-03-28T05:44:13.629Z,972.76
2023-03-28T05:45:14.753Z,972.76
2023-03-28T05:46:14.782Z,972.79
2023-03-28T05:47:13.442Z,972.79
2023-03-28T05:48:13.556Z,972.82
2023-03-28T05:49:13.533Z,972.81
2023-03-28T05:50:13.457Z,972.76
2023-03-28T05:51:13.244Z,972.78
2023-03-28T05:52:13.222Z,972.85
2023-03-28T05:53:13.279Z,972.84
2023-03-28T05:54:13.103Z,972.84
2023-03-28T05:55:13.195Z,972.88
2023-03-28T05:56:13.246Z,972.82
2023-03-28T05:57:13.232Z,972.90
2023-03-28T05:58:12.896Z,972.87
2023-03-28T05:59:13.013Z,972.89
2023-03-28T06:03:47.279Z,972.92
2023-03-28T06:04:46.853Z,972.90
2023-03-28T06:05:46.953Z,972.94
2023-03-28T06:06:46.647Z,972.95
2023-03-28T06:07:46.762Z,972.93
2023-03-28T06:08:46.542Z,972.93
2023-03-28T06:09:46.777Z,972.95
2023-03-28T06:10:46.834Z,972.97
2023-03-28T06:11:46.394Z,972.98
2023-03-28T06:12:46.601Z,972.99
2023-03-28T06:13:46.287Z,972.97
2023-03-28T06:14:46.405Z,973.00
2023-03-28T06:15:46.203Z,972.98
2023-03-28T06:16:46.364Z,972.98
2023-03-28T06:17:46.207Z,973.01
2023-03-28T06:18:46.131Z,973.00
2023-03-28T06:19:46.032Z,972.99
2023-03-28T06:20:46.134Z,972.98
2023-03-28T06:21:45.895Z,972.99
2023-03-28T06:22:45.943Z,972.97
2023-03-28T06:23:45.808Z,972.97
2023-03-28T06:24:45.930Z,973.01
2023-03-28T06:25:45.699Z,972.98
2023-03-28T06:26:45.870Z,972.99
2023-03-28T06:27:45.604Z,972.98
2023-03-28T06:28:45.696Z,972.94
2023-03-28T06:29:45.703Z,972.96
2023-03-28T06:30:45.597Z,972.96
2023-03-28T06:31:45.443Z,972.95
2023-03-28T06:32:46.522Z,972.95
2023-03-28T06:33:45.310Z,972.98
2023-03-28T06:34:45.427Z,972.98
2023-03-28T06:35:45.242Z,973.01
2023-03-28T06:36:45.236Z,972.96
2023-03-28T06:37:45.120Z,972.99
2023-03-28T06:38:46.545Z,972.95
2023-03-28T06:39:45.016Z,972.97
2023-03-28T06:40:45.055Z,972.97
2023-03-28T06:41:45.063Z,972.97
2023-03-28T06:42:44.875Z,972.97
2023-03-28T06:43:46.930Z,972.98
2023-03-28T06:44:44.796Z,972.99
2023-03-28T06:45:44.905Z,972.96
2023-03-28T06:46:44.975Z,972.98
2023-03-28T06:47:44.656Z,972.98
2023-03-28T06:48:44.717Z,972.98
2023-03-28T06:49:44.530Z,972.99
2023-03-28T06:50:44.556Z,972.99
2023-03-28T06:51:44.441Z,972.98
2023-03-28T06:52:44.535Z,972.96
2023-03-28T06:53:44.555Z,972.97
2023-03-28T06:54:46.002Z,972.91
2023-03-28T06:55:45.371Z,972.89
2023-03-28T06:56:44.289Z,972.91
2023-03-28T06:57:44.368Z,972.90
2023-03-28T06:58:44.092Z,972.91
2023-03-28T06:59:44.039Z,972.93
2023-03-28T07:00:45.108Z,972.92
2023-03-28T07:01:44.001Z,972.94
2023-03-28T07:02:45.240Z,972.94
2023-03-28T07:03:43.980Z,972.95
2023-03-28T07:04:44.929Z,972.91
2023-03-28T07:05:43.760Z,972.97
2023-03-28T07:06:43.920Z,972.89
2023-03-28T07:07:43.801Z,972.90
2023-03-28T07:08:43.728Z,972.91
2023-03-28T07:09:43.567Z,972.88
2023-03-28T07:10:43.540Z,972.88
2023-03-28T07:11:43.461Z,972.87
2023-03-28T07:12:43.417Z,972.95
2023-03-28T07:13:44.593Z,972.92
2023-03-28T07:14:43.314Z,973.00
2023-03-28T07:15:44.606Z,972.98
2023-03-28T07:16:43.280Z,972.95
2023-03-28T07:17:43.349Z,972.97
2023-03-28T07:18:43.131Z,973.02
2023-03-28T07:20:04.189Z,972.99
2023-03-28T07:20:45.587Z,972.98
2023-03-28T07:21:44.140Z,972.97
2023-03-28T07:22:42.959Z,972.95
2023-03-28T07:23:44.048Z,972.96
2023-03-28T07:24:42.880Z,972.94
2023-03-28T07:25:42.935Z,972.99
2023-03-28T07:26:42.738Z,973.00
2023-03-28T07:27:42.782Z,973.00
2023-03-28T07:28:42.812Z,973.03
2023-03-28T07:29:42.768Z,973.07
2023-03-28T07:30:42.543Z,973.03
2023-03-28T07:31:42.623Z,973.05
2023-03-28T07:32:54.355Z,973.07
2023-03-28T07:33:42.431Z,973.03
2023-03-28T07:34:42.593Z,973.07
2023-03-28T07:35:42.349Z,973.06
2023-03-28T07:36:42.505Z,973.04
2023-03-28T07:37:42.212Z,973.03
2023-03-28T07:38:43.343Z,973.00
2023-03-28T07:39:42.109Z,973.03
2023-03-28T07:40:42.127Z,973.03
2023-03-28T07:41:42.059Z,973.09
2023-03-28T07:42:42.134Z,973.09
2023-03-28T07:43:41.927Z,973.09
2023-03-28T07:44:42.438Z,973.07
2023-03-28T07:45:41.869Z,973.14
2023-03-28T07:46:41.858Z,973.15
2023-03-28T07:47:42.038Z,973.14
2023-03-28T07:48:41.801Z,973.14
2023-03-28T07:49:41.640Z,973.14
2023-03-28T07:50:41.693Z,973.15
2023-03-28T07:51:41.713Z,973.16
2023-03-28T07:52:43.550Z,973.17
2023-03-28T07:53:41.478Z,973.12
2023-03-28T07:54:41.533Z,973.14
2023-03-28T07:55:54.558Z,973.11
2023-03-28T07:56:41.497Z,973.13
2023-03-28T07:57:41.375Z,973.13
2023-03-28T07:58:41.331Z,973.07
2023-03-28T07:59:41.168Z,973.10
2023-03-28T08:00:41.351Z,973.09
2023-03-28T08:01:41.067Z,973.07
2023-03-28T08:02:43.390Z,973.07
2023-03-28T08:03:41.045Z,973.05
2023-03-28T08:04:41.075Z,973.05
2023-03-28T08:05:40.918Z,973.03
2023-03-28T08:06:41.102Z,973.03
2023-03-28T08:07:41.044Z,973.07
2023-03-28T08:08:40.792Z,973.04
2023-03-28T08:09:40.740Z,973.06
2023-03-28T08:10:40.713Z,973.06
2023-03-28T08:11:40.681Z,973.07
2023-03-28T08:12:40.626Z,973.11
2023-03-28T08:13:40.498Z,973.12
2023-03-28T08:14:40.634Z,973.15
2023-03-28T08:15:40.616Z,973.16
2023-03-28T08:16:40.549Z,973.18
2023-03-28T08:17:40.336Z,973.16
2023-03-28T08:18:40.395Z,973.16
2023-03-28T08:19:40.360Z,973.17
2023-03-28T08:20:40.190Z,973.19
2023-03-28T08:21:41.512Z,973.18
2023-03-28T08:22:40.095Z,973.24
2023-03-28T08:23:40.085Z,973.23
2023-03-28T08:24:39.976Z,973.23
2023-03-28T08:25:39.925Z,973.29
2023-03-28T08:26:40.106Z,973.30
2023-03-28T08:27:39.830Z,973.25
2023-03-28T08:28:39.915Z,973.30
2023-03-28T08:29:39.786Z,973.27
2023-03-28T08:30:39.932Z,973.33
2023-03-28T08:31:39.674Z,973.31
2023-03-28T08:32:39.893Z,973.30
2023-03-28T08:33:39.545Z,973.35
2023-03-28T08:34:39.654Z,973.30
2023-03-28T08:35:40.465Z,973.28
2023-03-28T08:36:39.790Z,973.30
2023-03-28T08:37:39.365Z,973.33
2023-03-28T08:38:39.477Z,973.31
2023-03-28T08:39:39.267Z,973.33
2023-03-28T08:40:39.346Z,973.30
2023-03-28T08:41:39.177Z,973.28
2023-03-28T08:42:39.542Z,973.31
2023-03-28T08:43:39.100Z,973.30
2023-03-28T08:44:39.067Z,973.27
2023-03-28T08:45:39.123Z,973.30
2023-03-28T08:46:38.972Z,973.34
2023-03-28T08:47:39.153Z,973.33
2023-03-28T08:48:38.895Z,973.41
2023-03-28T08:49:40.072Z,973.45
2023-03-28T08:50:38.757Z,973.47
2023-03-28T08:51:39.887Z,973.54
2023-03-28T08:52:38.695Z,973.54
2023-03-28T08:53:38.773Z,973.55
2023-03-28T08:54:38.572Z,973.60
2023-03-28T08:55:40.634Z,973.62
2023-03-28T08:56:38.518Z,973.57
2023-03-28T08:57:39.877Z,973.63
2023-03-28T08:58:39.676Z,973.64
2023-03-28T08:59:38.609Z,973.69
2023-03-28T09:00:38.313Z,973.70
2023-03-28T09:01:40.512Z,973.68
2023-03-28T09:02:38.441Z,973.76
2023-03-28T09:03:38.532Z,973.78
2023-03-28T09:04:38.164Z,973.78
2023-03-28T09:05:38.240Z,973.81
2023-03-28T09:06:38.063Z,973.78
2023-03-28T09:07:39.076Z,973.75
2023-03-28T09:08:37.979Z,973.77
2023-03-28T09:09:38.073Z,973.74
2023-03-28T09:10:38.011Z,973.73
2023-03-28T09:11:37.988Z,973.78
2023-03-28T09:12:37.815Z,973.82
2023-03-28T09:13:40.122Z,973.80
2023-03-28T09:14:37.746Z,973.67
2023-03-28T09:15:37.813Z,973.78
2023-03-28T09:16:37.760Z,973.85
2023-03-28T09:17:37.874Z,973.87
2023-03-28T09:18:37.582Z,973.88
2023-03-28T09:19:47.944Z,973.86
2023-03-28T09:20:37.647Z,973.88
2023-03-28T09:21:37.477Z,973.82
2023-03-28T09:22:39.500Z,973.81
2023-03-28T09:23:37.394Z,973.85
2023-03-28T09:24:37.567Z,973.88
2023-03-28T09:25:37.319Z,973.83
2023-03-28T09:26:37.430Z,973.89
2023-03-28T09:27:37.414Z,973.91
2023-03-28T09:28:37.204Z,973.90
2023-03-28T09:29:37.394Z,973.87
2023-03-28T09:30:37.135Z,973.87
2023-03-28T09:31:37.238Z,973.82
2023-03-28T09:32:38.312Z,973.85
2023-03-28T09:33:37.019Z,973.83
2023-03-28T09:34:37.435Z,973.81
2023-03-28T09:35:36.979Z,973.81
2023-03-28T09:36:47.848Z,973.83
2023-03-28T09:37:36.885Z,973.86
2023-03-28T09:38:36.853Z,973.76
2023-03-28T09:39:38.904Z,973.79
2023-03-28T09:40:36.766Z,973.78
2023-03-28T09:41:37.074Z,973.80
2023-03-28T09:42:36.729Z,973.82
2023-03-28T09:43:36.889Z,973.82
2023-03-28T09:44:51.022Z,973.80
2023-03-28T09:45:36.652Z,973.73
2023-03-28T09:46:36.804Z,973.77
2023-03-28T09:47:36.585Z,973.76
2023-03-28T09:48:36.722Z,973.78
2023-03-28T09:49:36.459Z,973.77
2023-03-28T09:50:36.949Z,973.75
2023-03-28T09:51:37.460Z,973.73
2023-03-28T09:52:36.353Z,973.75
2023-03-28T09:53:37.469Z,973.71
2023-03-28T09:54:36.274Z,973.69
2023-03-28T09:55:36.360Z,973.74
2023-03-28T09:56:36.310Z,973.71
2023-03-28T09:57:36.168Z,973.78
2023-03-28T09:58:36.382Z,973.81
2023-03-28T09:59:36.098Z,973.77
2023-03-28T10:00:37.426Z,973.80
2023-03-28T10:01:36.133Z,973.85
2023-03-28T10:02:36.126Z,973.79
2023-03-28T10:03:35.960Z,973.84
2023-03-28T10:04:38.265Z,973.83
2023-03-28T10:05:35.944Z,973.79
2023-03-28T10:06:36.156Z,973.78
2023-03-28T10:07:35.846Z,973.76
2023-03-28T10:08:58.883Z,973.78
2023-03-28T10:09:36.004Z,973.75
2023-03-28T10:10:36.986Z,973.69
2023-03-28T10:11:35.750Z,973.64
2023-03-28T10:12:35.877Z,973.62
2023-03-28T10:13:35.618Z,973.62
2023-03-28T10:14:36.720Z,973.64
2023-03-28T10:15:35.559Z,973.61
2023-03-28T10:16:37.002Z,973.58
2023-03-28T10:17:37.101Z,973.51
2023-03-28T10:18:35.449Z,973.40
2023-03-28T10:19:35.612Z,973.39
2023-03-28T10:20:35.391Z,973.47
2023-03-28T10:21:37.494Z,973.54
2023-03-28T10:22:35.339Z,973.58
2023-03-28T10:23:35.551Z,973.61
2023-03-28T10:24:35.255Z,973.58
2023-03-28T10:25:35.457Z,973.63
2023-03-28T10:26:35.174Z,973.63
2023-03-28T10:27:35.264Z,973.58
2023-03-28T10:28:36.345Z,973.58
2023-03-28T10:29:35.072Z,973.63
2023-03-28T10:30:36.413Z,973.59
2023-03-28T10:31:35.021Z,973.60
2023-03-28T10:32:35.319Z,973.61
2023-03-28T10:33:34.936Z,973.58
2023-03-28T10:34:34.945Z,973.56
2023-03-28T10:35:34.920Z,973.57
2023-03-28T10:36:34.924Z,973.54
2023-03-28T10:37:34.830Z,973.49
2023-03-28T10:38:34.936Z,973.46
2023-03-28T10:39:34.726Z,973.31
2023-03-28T10:40:34.736Z,973.32
2023-03-28T10:41:34.667Z,973.47
2023-03-28T10:42:34.960Z,973.47
2023-03-28T10:43:34.596Z,973.45
2023-03-28T10:44:34.677Z,973.46
2023-03-28T10:45:34.524Z,973.45
2023-03-28T10:46:34.717Z,973.46
2023-03-28T10:47:34.492Z,973.39
2023-03-28T10:48:34.495Z,973.40
2023-03-28T10:49:34.396Z,973.39
2023-03-28T10:50:36.936Z,973.44
2023-03-28T10:51:34.327Z,973.38
2023-03-28T10:52:35.548Z,973.42
2023-03-28T10:53:34.264Z,973.35
2023-03-28T10:54:35.369Z,973.36
2023-03-28T10:55:34.179Z,973.37
2023-03-28T10:56:35.372Z,973.36
2023-03-28T10:57:34.105Z,973.29
2023-03-28T10:58:34.465Z,973.33
2023-03-28T10:59:34.279Z,973.31
2023-03-28T11:00:34.025Z,973.28
2023-03-28T11:01:34.150Z,973.25
2023-03-28T11:02:34.056Z,973.29
2023-03-28T11:03:36.232Z,973.28
2023-03-28T11:04:33.896Z,973.35
2023-03-28T11:05:33.840Z,973.33
2023-03-28T11:06:33.916Z,973.37
2023-03-28T11:07:33.796Z,973.33
2023-03-28T11:08:35.165Z,973.36
2023-03-28T11:09:33.734Z,973.29
2023-03-28T11:10:33.942Z,973.26
2023-03-28T11:11:33.642Z,973.27
2023-03-28T11:12:40.946Z,973.25
2023-03-28T11:13:33.810Z,973.24
2023-03-28T11:14:34.790Z,973.27
2023-03-28T11:15:33.513Z,973.24
2023-03-28T11:16:54.670Z,973.30
2023-03-28T11:17:33.525Z,973.30
2023-03-28T11:18:33.414Z,973.30
2023-03-28T11:19:33.519Z,973.28
2023-03-28T11:20:33.558Z,973.24
2023-03-28T11:21:33.409Z,973.22
2023-03-28T11:22:33.286Z,973.20
2023-03-28T11:23:34.115Z,973.20
2023-03-28T11:24:33.199Z,973.12
2023-03-28T11:25:33.436Z,973.20
2023-03-28T11:26:33.164Z,973.25
2023-03-28T11:27:34.469Z,973.22
2023-03-28T11:28:33.066Z,973.18
2023-03-28T11:29:42.692Z,973.20
2023-03-28T11:30:33.018Z,973.20
2023-03-28T11:31:34.148Z,973.20
2023-03-28T11:32:33.187Z,973.19
2023-03-28T11:33:33.081Z,973.15
2023-03-28T11:34:32.862Z,973.12
2023-03-28T11:35:33.165Z,973.08
2023-03-28T11:36:32.807Z,973.08
2023-03-28T11:37:32.912Z,973.08
2023-03-28T11:38:32.745Z,973.11
2023-03-28T11:39:36.114Z,973.10
2023-03-28T11:40:32.662Z,973.09
2023-03-28T11:41:32.837Z,973.02
2023-03-28T11:42:32.598Z,973.09
2023-03-28T11:43:34.697Z,973.07
2023-03-28T11:44:32.548Z,973.04
2023-03-28T11:45:49.596Z,973.07
2023-03-28T11:46:32.901Z,973.02
2023-03-28T11:47:32.538Z,973.02
2023-03-28T11:48:32.398Z,972.98
2023-03-28T11:49:32.513Z,972.94
2023-03-28T11:50:32.332Z,972.93
2023-03-28T11:51:32.502Z,972.85
2023-03-28T11:52:33.318Z,972.81
2023-03-28T11:53:32.537Z,972.79
2023-03-28T11:54:32.325Z,972.76
2023-03-28T11:55:32.193Z,972.77
2023-03-28T11:56:32.354Z,972.79
2023-03-28T11:57:32.400Z,972.79
2023-03-28T11:58:33.173Z,972.81
2023-03-28T11:59:32.037Z,972.78
2023-03-28T12:00:34.335Z,972.74
2023-03-28T12:01:31.976Z,972.74
2023-03-28T12:02:32.332Z,972.72
2023-03-28T12:03:32.000Z,972.74
2023-03-28T12:04:32.162Z,972.68
2023-03-28T12:05:31.852Z,972.71
2023-03-28T12:06:32.305Z,972.68
2023-03-28T12:07:31.774Z,972.64
2023-03-28T12:08:31.915Z,972.66
2023-03-28T12:09:31.709Z,972.64
2023-03-28T12:10:31.864Z,972.66
2023-03-28T12:11:31.667Z,972.69
2023-03-28T12:12:34.094Z,972.68
2023-03-28T12:13:31.606Z,972.60
2023-03-28T12:14:31.849Z,972.65
2023-03-28T12:15:31.518Z,972.64
2023-03-28T12:16:31.670Z,972.69
2023-03-28T12:17:31.504Z,972.63
2023-03-28T12:18:32.699Z,972.60
2023-03-28T12:19:31.397Z,972.58
2023-03-28T12:20:31.710Z,972.54
2023-03-28T12:21:31.336Z,972.52
2023-03-28T12:22:31.502Z,972.50
2023-03-28T12:23:31.277Z,972.50
2023-03-28T12:24:31.528Z,972.50
2023-03-28T12:25:31.245Z,972.44
2023-03-28T12:26:31.217Z,972.43
2023-03-28T12:27:31.159Z,972.40
2023-03-28T12:28:31.342Z,972.40
2023-03-28T12:29:31.089Z,972.39
2023-03-28T12:30:31.889Z,972.34
2023-03-28T12:31:31.088Z,972.36